sensor_id;sensor_type;location;lat;lon;timestamp;P1;durP1;ratioP1;P2;durP2;ratioP2
22435;SDS011;11385;50.822;4.324;2022-12-10T00:00:22;46.68;;;22.58;;
22435;SDS011;11385;50.822;4.324;2022-12-10T00:02:49;50.88;;;23.25;;
22435;SDS011;11385;50.822;4.324;2022-12-10T00:05:16;48.63;;;24.20;;
22435;SDS011;11385;50.822;4.324;2022-12-10T00:07:43;53.35;;;26.93;;
22435;SDS011;11385;50.822;4.324;2022-12-10T00:10:09;47.60;;;24.87;;
22435;SDS011;11385;50.822;4.324;2022-12-10T00:12:36;53.13;;;25.25;;
22435;SDS011;11385;50.822;4.324;2022-12-10T00:15:03;49.50;;;23.50;;
22435;SDS011;11385;50.822;4.324;2022-12-10T00:17:29;50.38;;;25.85;;
22435;SDS011;11385;50.822;4.324;2022-12-10T00:19:56;53.38;;;25.15;;
22435;SDS011;11385;50.822;4.324;2022-12-10T00:22:23;49.45;;;24.52;;
22435;SDS011;11385;50.822;4.324;2022-12-10T00:24:49;53.58;;;25.30;;
22435;SDS011;11385;50.822;4.324;2022-12-10T00:27:16;49.27;;;24.15;;
22435;SDS011;11385;50.822;4.324;2022-12-10T00:29:42;50.52;;;24.40;;
22435;SDS011;11385;50.822;4.324;2022-12-10T00:32:09;52.80;;;26.30;;
22435;SDS011;11385;50.822;4.324;2022-12-10T00:34:36;51.18;;;24.52;;
22435;SDS011;11385;50.822;4.324;2022-12-10T00:37:02;51.92;;;24.12;;
22435;SDS011;11385;50.822;4.324;2022-12-10T00:39:29;50.50;;;25.45;;
22435;SDS011;11385;50.822;4.324;2022-12-10T00:41:56;49.27;;;23.90;;
22435;SDS011;11385;50.822;4.324;2022-12-10T00:44:22;50.98;;;25.57;;
22435;SDS011;11385;50.822;4.324;2022-12-10T00:46:49;51.13;;;25.57;;
22435;SDS011;11385;50.822;4.324;2022-12-10T00:49:17;51.68;;;25.25;;
22435;SDS011;11385;50.822;4.324;2022-12-10T00:51:44;54.45;;;26.55;;
22435;SDS011;11385;50.822;4.324;2022-12-10T00:54:10;51.63;;;26.77;;
22435;SDS011;11385;50.822;4.324;2022-12-10T00:56:37;50.25;;;25.88;;
22435;SDS011;11385;50.822;4.324;2022-12-10T00:59:03;50.65;;;26.82;;
22435;SDS011;11385;50.822;4.324;2022-12-10T01:01:31;52.10;;;27.82;;
22435;SDS011;11385;50.822;4.324;2022-12-10T01:04:00;56.80;;;27.98;;
22435;SDS011;11385;50.822;4.324;2022-12-10T01:06:30;57.35;;;28.77;;
22435;SDS011;11385;50.822;4.324;2022-12-10T01:09:01;51.90;;;27.42;;
22435;SDS011;11385;50.822;4.324;2022-12-10T01:11:34;54.90;;;27.90;;
22435;SDS011;11385;50.822;4.324;2022-12-10T01:14:03;54.10;;;27.80;;
22435;SDS011;11385;50.822;4.324;2022-12-10T01:16:30;58.87;;;29.05;;
22435;SDS011;11385;50.822;4.324;2022-12-10T01:18:57;52.55;;;26.85;;
22435;SDS011;11385;50.822;4.324;2022-12-10T01:21:25;58.55;;;29.50;;
22435;SDS011;11385;50.822;4.324;2022-12-10T01:23:53;59.13;;;28.92;;
22435;SDS011;11385;50.822;4.324;2022-12-10T01:26:22;51.15;;;28.45;;
22435;SDS011;11385;50.822;4.324;2022-12-10T01:28:51;40.83;;;21.07;;
22435;SDS011;11385;50.822;4.324;2022-12-10T01:31:21;54.40;;;27.05;;
22435;SDS011;11385;50.822;4.324;2022-12-10T01:33:51;58.50;;;30.08;;
22435;SDS011;11385;50.822;4.324;2022-12-10T01:36:21;56.73;;;30.72;;
22435;SDS011;11385;50.822;4.324;2022-12-10T01:38:49;58.25;;;29.90;;
22435;SDS011;11385;50.822;4.324;2022-12-10T01:41:18;54.05;;;30.27;;
22435;SDS011;11385;50.822;4.324;2022-12-10T01:43:53;56.88;;;31.05;;
22435;SDS011;11385;50.822;4.324;2022-12-10T01:46:26;55.78;;;29.07;;
22435;SDS011;11385;50.822;4.324;2022-12-10T01:48:55;52.90;;;28.55;;
22435;SDS011;11385;50.822;4.324;2022-12-10T01:51:23;56.75;;;29.90;;
22435;SDS011;11385;50.822;4.324;2022-12-10T01:53:52;52.43;;;28.20;;
22435;SDS011;11385;50.822;4.324;2022-12-10T01:56:20;53.68;;;29.80;;
22435;SDS011;11385;50.822;4.324;2022-12-10T01:58:48;51.60;;;28.80;;
22435;SDS011;11385;50.822;4.324;2022-12-10T02:01:22;57.08;;;30.68;;
22435;SDS011;11385;50.822;4.324;2022-12-10T02:06:58;55.25;;;28.75;;
22435;SDS011;11385;50.822;4.324;2022-12-10T02:09:32;59.08;;;29.72;;
22435;SDS011;11385;50.822;4.324;2022-12-10T02:14:58;53.55;;;27.70;;
22435;SDS011;11385;50.822;4.324;2022-12-10T02:17:34;54.80;;;29.55;;
22435;SDS011;11385;50.822;4.324;2022-12-10T02:20:07;58.38;;;30.23;;
22435;SDS011;11385;50.822;4.324;2022-12-10T02:22:39;63.73;;;31.95;;
22435;SDS011;11385;50.822;4.324;2022-12-10T02:25:10;58.02;;;30.27;;
22435;SDS011;11385;50.822;4.324;2022-12-10T02:27:48;63.30;;;31.07;;
22435;SDS011;11385;50.822;4.324;2022-12-10T02:30:17;62.10;;;31.87;;
22435;SDS011;11385;50.822;4.324;2022-12-10T02:32:45;61.75;;;33.30;;
22435;SDS011;11385;50.822;4.324;2022-12-10T02:35:16;66.25;;;33.73;;
22435;SDS011;11385;50.822;4.324;2022-12-10T02:37:48;64.32;;;33.23;;
22435;SDS011;11385;50.822;4.324;2022-12-10T02:40:19;61.18;;;31.50;;
22435;SDS011;11385;50.822;4.324;2022-12-10T02:42:49;62.33;;;32.70;;
22435;SDS011;11385;50.822;4.324;2022-12-10T02:45:18;58.83;;;32.00;;
22435;SDS011;11385;50.822;4.324;2022-12-10T02:47:48;66.65;;;34.43;;
22435;SDS011;11385;50.822;4.324;2022-12-10T02:50:15;70.32;;;34.83;;
22435;SDS011;11385;50.822;4.324;2022-12-10T02:52:45;71.07;;;35.43;;
22435;SDS011;11385;50.822;4.324;2022-12-10T02:55:12;74.90;;;34.95;;
22435;SDS011;11385;50.822;4.324;2022-12-10T02:57:43;69.35;;;34.05;;
22435;SDS011;11385;50.822;4.324;2022-12-10T03:00:20;72.92;;;34.53;;
22435;SDS011;11385;50.822;4.324;2022-12-10T03:03:10;68.02;;;31.80;;
22435;SDS011;11385;50.822;4.324;2022-12-10T03:05:40;72.78;;;33.00;;
22435;SDS011;11385;50.822;4.324;2022-12-10T03:08:14;70.75;;;34.78;;
22435;SDS011;11385;50.822;4.324;2022-12-10T03:10:57;67.58;;;31.27;;
22435;SDS011;11385;50.822;4.324;2022-12-10T03:13:33;73.15;;;33.95;;
22435;SDS011;11385;50.822;4.324;2022-12-10T03:16:04;72.30;;;32.85;;
22435;SDS011;11385;50.822;4.324;2022-12-10T03:18:31;70.78;;;32.38;;
22435;SDS011;11385;50.822;4.324;2022-12-10T03:21:02;78.25;;;35.20;;
22435;SDS011;11385;50.822;4.324;2022-12-10T03:23:31;80.53;;;35.58;;
22435;SDS011;11385;50.822;4.324;2022-12-10T03:26:01;76.82;;;34.35;;
22435;SDS011;11385;50.822;4.324;2022-12-10T03:28:30;79.85;;;35.65;;
22435;SDS011;11385;50.822;4.324;2022-12-10T03:33:27;76.17;;;33.00;;
22435;SDS011;11385;50.822;4.324;2022-12-10T03:35:54;77.78;;;35.92;;
22435;SDS011;11385;50.822;4.324;2022-12-10T03:38:22;80.92;;;35.05;;
22435;SDS011;11385;50.822;4.324;2022-12-10T03:40:49;82.22;;;36.63;;
22435;SDS011;11385;50.822;4.324;2022-12-10T03:43:15;86.75;;;37.25;;
22435;SDS011;11385;50.822;4.324;2022-12-10T03:45:42;80.77;;;36.63;;
22435;SDS011;11385;50.822;4.324;2022-12-10T03:48:09;89.03;;;38.63;;
22435;SDS011;11385;50.822;4.324;2022-12-10T03:50:35;79.77;;;36.20;;
22435;SDS011;11385;50.822;4.324;2022-12-10T03:53:02;71.12;;;31.40;;
22435;SDS011;11385;50.822;4.324;2022-12-10T03:55:28;73.33;;;30.45;;
22435;SDS011;11385;50.822;4.324;2022-12-10T03:57:55;67.75;;;29.98;;
22435;SDS011;11385;50.822;4.324;2022-12-10T04:00:22;76.40;;;32.28;;
22435;SDS011;11385;50.822;4.324;2022-12-10T04:02:48;82.45;;;34.45;;
22435;SDS011;11385;50.822;4.324;2022-12-10T04:05:15;73.15;;;31.62;;
22435;SDS011;11385;50.822;4.324;2022-12-10T04:07:42;79.00;;;33.13;;
22435;SDS011;11385;50.822;4.324;2022-12-10T04:10:08;79.07;;;33.18;;
22435;SDS011;11385;50.822;4.324;2022-12-10T04:12:36;74.25;;;33.05;;
22435;SDS011;11385;50.822;4.324;2022-12-10T04:15:03;73.60;;;31.97;;
22435;SDS011;11385;50.822;4.324;2022-12-10T04:17:35;77.50;;;32.42;;
22435;SDS011;11385;50.822;4.324;2022-12-10T04:20:02;76.50;;;31.42;;
22435;SDS011;11385;50.822;4.324;2022-12-10T04:22:29;75.62;;;32.60;;
22435;SDS011;11385;50.822;4.324;2022-12-10T04:25:01;76.92;;;30.97;;
22435;SDS011;11385;50.822;4.324;2022-12-10T04:27:37;81.45;;;33.33;;
22435;SDS011;11385;50.822;4.324;2022-12-10T04:30:06;79.53;;;34.58;;
22435;SDS011;11385;50.822;4.324;2022-12-10T04:32:35;80.53;;;31.73;;
22435;SDS011;11385;50.822;4.324;2022-12-10T04:35:02;76.95;;;34.48;;
22435;SDS011;11385;50.822;4.324;2022-12-10T04:37:30;80.83;;;32.83;;
22435;SDS011;11385;50.822;4.324;2022-12-10T04:39:56;90.77;;;35.38;;
22435;SDS011;11385;50.822;4.324;2022-12-10T04:42:23;83.37;;;33.28;;
22435;SDS011;11385;50.822;4.324;2022-12-10T04:44:50;81.55;;;34.05;;
22435;SDS011;11385;50.822;4.324;2022-12-10T04:47:17;85.67;;;34.23;;
22435;SDS011;11385;50.822;4.324;2022-12-10T04:49:43;74.32;;;32.35;;
22435;SDS011;11385;50.822;4.324;2022-12-10T04:52:11;82.08;;;34.53;;
22435;SDS011;11385;50.822;4.324;2022-12-10T04:54:39;86.47;;;34.10;;
22435;SDS011;11385;50.822;4.324;2022-12-10T04:57:06;82.50;;;34.78;;
22435;SDS011;11385;50.822;4.324;2022-12-10T04:59:34;81.90;;;32.80;;
22435;SDS011;11385;50.822;4.324;2022-12-10T05:02:02;88.72;;;36.53;;
22435;SDS011;11385;50.822;4.324;2022-12-10T05:04:29;85.85;;;34.15;;
22435;SDS011;11385;50.822;4.324;2022-12-10T05:06:56;80.20;;;33.02;;
22435;SDS011;11385;50.822;4.324;2022-12-10T05:09:23;75.67;;;32.75;;
22435;SDS011;11385;50.822;4.324;2022-12-10T05:11:50;80.42;;;31.20;;
22435;SDS011;11385;50.822;4.324;2022-12-10T05:14:16;68.72;;;31.25;;
22435;SDS011;11385;50.822;4.324;2022-12-10T05:16:43;74.20;;;30.52;;
22435;SDS011;11385;50.822;4.324;2022-12-10T05:19:10;70.42;;;29.02;;
22435;SDS011;11385;50.822;4.324;2022-12-10T05:21:37;67.03;;;26.75;;
22435;SDS011;11385;50.822;4.324;2022-12-10T05:24:09;65.28;;;27.98;;
22435;SDS011;11385;50.822;4.324;2022-12-10T05:26:36;71.37;;;28.32;;
22435;SDS011;11385;50.822;4.324;2022-12-10T05:29:02;71.05;;;27.80;;
22435;SDS011;11385;50.822;4.324;2022-12-10T05:31:29;77.78;;;29.90;;
22435;SDS011;11385;50.822;4.324;2022-12-10T05:33:57;78.15;;;30.60;;
22435;SDS011;11385;50.822;4.324;2022-12-10T05:36:25;77.53;;;31.50;;
22435;SDS011;11385;50.822;4.324;2022-12-10T05:38:54;76.17;;;29.48;;
22435;SDS011;11385;50.822;4.324;2022-12-10T05:41:23;73.30;;;29.02;;
22435;SDS011;11385;50.822;4.324;2022-12-10T05:43:50;70.87;;;29.60;;
22435;SDS011;11385;50.822;4.324;2022-12-10T05:46:21;71.70;;;31.25;;
22435;SDS011;11385;50.822;4.324;2022-12-10T05:48:49;74.82;;;30.10;;
22435;SDS011;11385;50.822;4.324;2022-12-10T05:51:18;76.77;;;27.75;;
22435;SDS011;11385;50.822;4.324;2022-12-10T05:53:47;72.62;;;31.45;;
22435;SDS011;11385;50.822;4.324;2022-12-10T05:56:14;69.75;;;29.02;;
22435;SDS011;11385;50.822;4.324;2022-12-10T05:58:44;75.00;;;30.72;;
22435;SDS011;11385;50.822;4.324;2022-12-10T06:01:13;74.22;;;28.70;;
22435;SDS011;11385;50.822;4.324;2022-12-10T06:03:42;74.58;;;29.80;;
22435;SDS011;11385;50.822;4.324;2022-12-10T06:06:09;76.28;;;29.98;;
22435;SDS011;11385;50.822;4.324;2022-12-10T06:08:36;69.10;;;26.93;;
22435;SDS011;11385;50.822;4.324;2022-12-10T06:11:04;74.53;;;28.73;;
22435;SDS011;11385;50.822;4.324;2022-12-10T06:13:33;74.90;;;29.82;;
22435;SDS011;11385;50.822;4.324;2022-12-10T06:16:04;75.28;;;30.57;;
22435;SDS011;11385;50.822;4.324;2022-12-10T06:20:57;75.47;;;27.73;;
22435;SDS011;11385;50.822;4.324;2022-12-10T06:23:24;72.40;;;29.52;;
22435;SDS011;11385;50.822;4.324;2022-12-10T06:25:51;71.45;;;28.98;;
22435;SDS011;11385;50.822;4.324;2022-12-10T06:28:17;77.67;;;29.82;;
22435;SDS011;11385;50.822;4.324;2022-12-10T06:30:44;75.12;;;29.40;;
22435;SDS011;11385;50.822;4.324;2022-12-10T06:33:10;75.57;;;29.67;;
22435;SDS011;11385;50.822;4.324;2022-12-10T06:35:37;75.57;;;29.60;;
22435;SDS011;11385;50.822;4.324;2022-12-10T06:38:04;82.80;;;30.48;;
22435;SDS011;11385;50.822;4.324;2022-12-10T06:40:31;80.75;;;30.45;;
22435;SDS011;11385;50.822;4.324;2022-12-10T06:42:57;75.52;;;30.48;;
22435;SDS011;11385;50.822;4.324;2022-12-10T06:45:24;80.72;;;31.37;;
22435;SDS011;11385;50.822;4.324;2022-12-10T06:47:50;72.03;;;28.62;;
22435;SDS011;11385;50.822;4.324;2022-12-10T06:50:17;75.40;;;29.77;;
22435;SDS011;11385;50.822;4.324;2022-12-10T06:52:44;71.45;;;26.75;;
22435;SDS011;11385;50.822;4.324;2022-12-10T06:55:10;68.00;;;28.20;;
22435;SDS011;11385;50.822;4.324;2022-12-10T06:57:37;67.92;;;27.52;;
22435;SDS011;11385;50.822;4.324;2022-12-10T07:00:04;67.75;;;27.40;;
22435;SDS011;11385;50.822;4.324;2022-12-10T07:02:31;71.47;;;28.05;;
22435;SDS011;11385;50.822;4.324;2022-12-10T07:04:58;76.25;;;30.68;;
22435;SDS011;11385;50.822;4.324;2022-12-10T07:07:24;83.52;;;29.92;;
22435;SDS011;11385;50.822;4.324;2022-12-10T07:09:51;76.15;;;30.12;;
22435;SDS011;11385;50.822;4.324;2022-12-10T07:12:18;79.30;;;28.65;;
22435;SDS011;11385;50.822;4.324;2022-12-10T07:14:44;77.75;;;27.65;;
22435;SDS011;11385;50.822;4.324;2022-12-10T07:17:11;97.08;;;29.65;;
22435;SDS011;11385;50.822;4.324;2022-12-10T07:19:37;82.10;;;28.47;;
22435;SDS011;11385;50.822;4.324;2022-12-10T07:22:04;92.37;;;26.17;;
22435;SDS011;11385;50.822;4.324;2022-12-10T07:24:31;72.05;;;27.00;;
22435;SDS011;11385;50.822;4.324;2022-12-10T07:26:57;68.10;;;26.75;;
22435;SDS011;11385;50.822;4.324;2022-12-10T07:29:25;68.12;;;26.27;;
22435;SDS011;11385;50.822;4.324;2022-12-10T07:31:52;72.90;;;27.20;;
22435;SDS011;11385;50.822;4.324;2022-12-10T07:34:20;62.27;;;26.05;;
22435;SDS011;11385;50.822;4.324;2022-12-10T07:36:46;64.85;;;26.87;;
22435;SDS011;11385;50.822;4.324;2022-12-10T07:39:13;74.62;;;27.90;;
22435;SDS011;11385;50.822;4.324;2022-12-10T07:41:44;75.83;;;32.63;;
22435;SDS011;11385;50.822;4.324;2022-12-10T07:44:15;71.05;;;26.73;;
22435;SDS011;11385;50.822;4.324;2022-12-10T07:46:44;72.80;;;26.97;;
22435;SDS011;11385;50.822;4.324;2022-12-10T07:49:10;66.05;;;28.00;;
22435;SDS011;11385;50.822;4.324;2022-12-10T07:51:37;65.75;;;27.05;;
22435;SDS011;11385;50.822;4.324;2022-12-10T07:54:04;68.67;;;27.67;;
22435;SDS011;11385;50.822;4.324;2022-12-10T07:56:31;71.22;;;26.00;;
22435;SDS011;11385;50.822;4.324;2022-12-10T07:58:57;71.28;;;27.27;;
22435;SDS011;11385;50.822;4.324;2022-12-10T08:01:25;98.95;;;38.63;;
22435;SDS011;11385;50.822;4.324;2022-12-10T08:03:53;89.92;;;40.00;;
22435;SDS011;11385;50.822;4.324;2022-12-10T08:06:24;75.83;;;28.70;;
22435;SDS011;11385;50.822;4.324;2022-12-10T08:08:52;66.05;;;25.43;;
22435;SDS011;11385;50.822;4.324;2022-12-10T08:11:19;70.92;;;27.50;;
22435;SDS011;11385;50.822;4.324;2022-12-10T08:13:47;73.78;;;26.50;;
22435;SDS011;11385;50.822;4.324;2022-12-10T08:16:15;68.50;;;25.32;;
22435;SDS011;11385;50.822;4.324;2022-12-10T08:18:43;70.15;;;23.57;;
22435;SDS011;11385;50.822;4.324;2022-12-10T08:21:12;84.40;;;27.65;;
22435;SDS011;11385;50.822;4.324;2022-12-10T08:23:41;57.08;;;23.50;;
22435;SDS011;11385;50.822;4.324;2022-12-10T08:26:10;72.65;;;25.57;;
22435;SDS011;11385;50.822;4.324;2022-12-10T08:28:39;65.93;;;25.73;;
22435;SDS011;11385;50.822;4.324;2022-12-10T08:31:07;61.85;;;24.02;;
22435;SDS011;11385;50.822;4.324;2022-12-10T08:33:35;63.33;;;23.45;;
22435;SDS011;11385;50.822;4.324;2022-12-10T08:36:03;65.60;;;23.42;;
22435;SDS011;11385;50.822;4.324;2022-12-10T08:38:31;75.12;;;25.40;;
22435;SDS011;11385;50.822;4.324;2022-12-10T08:40:58;68.20;;;24.25;;
22435;SDS011;11385;50.822;4.324;2022-12-10T08:43:27;64.07;;;26.73;;
22435;SDS011;11385;50.822;4.324;2022-12-10T08:45:54;67.03;;;30.00;;
22435;SDS011;11385;50.822;4.324;2022-12-10T08:48:24;100.02;;;48.50;;
22435;SDS011;11385;50.822;4.324;2022-12-10T08:50:50;63.75;;;24.75;;
22435;SDS011;11385;50.822;4.324;2022-12-10T08:53:17;63.17;;;24.32;;
22435;SDS011;11385;50.822;4.324;2022-12-10T08:55:44;69.03;;;25.70;;
22435;SDS011;11385;50.822;4.324;2022-12-10T08:58:10;64.97;;;25.10;;
22435;SDS011;11385;50.822;4.324;2022-12-10T09:00:37;60.95;;;25.35;;
22435;SDS011;11385;50.822;4.324;2022-12-10T09:03:03;67.30;;;26.23;;
22435;SDS011;11385;50.822;4.324;2022-12-10T09:05:30;68.10;;;26.60;;
22435;SDS011;11385;50.822;4.324;2022-12-10T09:07:57;67.60;;;26.52;;
22435;SDS011;11385;50.822;4.324;2022-12-10T09:10:23;67.40;;;26.85;;
22435;SDS011;11385;50.822;4.324;2022-12-10T09:12:50;67.15;;;27.05;;
22435;SDS011;11385;50.822;4.324;2022-12-10T09:15:16;70.25;;;26.37;;
22435;SDS011;11385;50.822;4.324;2022-12-10T09:17:43;69.65;;;27.13;;
22435;SDS011;11385;50.822;4.324;2022-12-10T09:20:10;71.80;;;30.50;;
22435;SDS011;11385;50.822;4.324;2022-12-10T09:22:36;66.77;;;27.35;;
22435;SDS011;11385;50.822;4.324;2022-12-10T09:25:04;68.33;;;27.52;;
22435;SDS011;11385;50.822;4.324;2022-12-10T09:27:32;68.60;;;27.75;;
22435;SDS011;11385;50.822;4.324;2022-12-10T09:29:59;66.75;;;28.23;;
22435;SDS011;11385;50.822;4.324;2022-12-10T09:32:26;67.72;;;28.02;;
22435;SDS011;11385;50.822;4.324;2022-12-10T09:34:53;68.17;;;26.87;;
22435;SDS011;11385;50.822;4.324;2022-12-10T09:37:19;67.60;;;26.33;;
22435;SDS011;11385;50.822;4.324;2022-12-10T09:39:46;61.50;;;26.23;;
22435;SDS011;11385;50.822;4.324;2022-12-10T09:42:17;64.05;;;25.82;;
22435;SDS011;11385;50.822;4.324;2022-12-10T09:47:31;61.55;;;25.00;;
22435;SDS011;11385;50.822;4.324;2022-12-10T09:50:06;61.77;;;25.15;;
22435;SDS011;11385;50.822;4.324;2022-12-10T09:52:36;69.97;;;25.52;;
22435;SDS011;11385;50.822;4.324;2022-12-10T09:55:09;67.12;;;25.55;;
22435;SDS011;11385;50.822;4.324;2022-12-10T09:57:38;65.92;;;26.68;;
22435;SDS011;11385;50.822;4.324;2022-12-10T10:00:17;71.92;;;27.77;;
22435;SDS011;11385;50.822;4.324;2022-12-10T10:02:44;70.55;;;27.22;;
22435;SDS011;11385;50.822;4.324;2022-12-10T10:05:46;65.87;;;27.22;;
22435;SDS011;11385;50.822;4.324;2022-12-10T10:08:00;66.90;;;25.85;;
22435;SDS011;11385;50.822;4.324;2022-12-10T10:10:31;68.33;;;25.52;;
22435;SDS011;11385;50.822;4.324;2022-12-10T10:15:40;58.75;;;24.23;;
22435;SDS011;11385;50.822;4.324;2022-12-10T10:20:46;61.28;;;24.05;;
22435;SDS011;11385;50.822;4.324;2022-12-10T10:23:14;63.78;;;26.93;;
22435;SDS011;11385;50.822;4.324;2022-12-10T10:25:42;59.67;;;25.82;;
22435;SDS011;11385;50.822;4.324;2022-12-10T10:28:11;67.22;;;27.10;;
22435;SDS011;11385;50.822;4.324;2022-12-10T10:30:40;75.45;;;30.27;;
22435;SDS011;11385;50.822;4.324;2022-12-10T10:33:09;65.97;;;27.13;;
22435;SDS011;11385;50.822;4.324;2022-12-10T10:35:53;67.50;;;28.02;;
22435;SDS011;11385;50.822;4.324;2022-12-10T10:38:25;63.90;;;24.80;;
22435;SDS011;11385;50.822;4.324;2022-12-10T10:40:55;61.30;;;24.80;;
22435;SDS011;11385;50.822;4.324;2022-12-10T10:43:26;64.55;;;27.55;;
22435;SDS011;11385;50.822;4.324;2022-12-10T10:45:58;69.00;;;26.65;;
22435;SDS011;11385;50.822;4.324;2022-12-10T10:50:55;64.97;;;24.23;;
22435;SDS011;11385;50.822;4.324;2022-12-10T10:53:43;57.45;;;23.75;;
22435;SDS011;11385;50.822;4.324;2022-12-10T10:56:14;78.97;;;36.03;;
22435;SDS011;11385;50.822;4.324;2022-12-10T10:58:46;69.77;;;29.90;;
22435;SDS011;11385;50.822;4.324;2022-12-10T11:01:21;61.88;;;24.43;;
22435;SDS011;11385;50.822;4.324;2022-12-10T11:03:54;65.17;;;25.02;;
22435;SDS011;11385;50.822;4.324;2022-12-10T11:06:25;68.00;;;26.33;;
22435;SDS011;11385;50.822;4.324;2022-12-10T11:08:54;61.45;;;24.00;;
22435;SDS011;11385;50.822;4.324;2022-12-10T11:11:25;66.45;;;25.15;;
22435;SDS011;11385;50.822;4.324;2022-12-10T11:16:37;66.72;;;25.30;;
22435;SDS011;11385;50.822;4.324;2022-12-10T11:19:04;70.52;;;26.60;;
22435;SDS011;11385;50.822;4.324;2022-12-10T11:21:32;63.83;;;24.95;;
22435;SDS011;11385;50.822;4.324;2022-12-10T11:24:04;62.20;;;24.18;;
22435;SDS011;11385;50.822;4.324;2022-12-10T11:26:45;70.08;;;25.55;;
22435;SDS011;11385;50.822;4.324;2022-12-10T11:29:31;61.40;;;23.67;;
22435;SDS011;11385;50.822;4.324;2022-12-10T11:32:11;57.43;;;23.15;;
22435;SDS011;11385;50.822;4.324;2022-12-10T11:34:59;65.12;;;23.83;;
22435;SDS011;11385;50.822;4.324;2022-12-10T11:37:31;59.58;;;23.87;;
22435;SDS011;11385;50.822;4.324;2022-12-10T11:40:06;58.02;;;22.55;;
22435;SDS011;11385;50.822;4.324;2022-12-10T11:45:41;61.13;;;23.87;;
22435;SDS011;11385;50.822;4.324;2022-12-10T11:48:29;63.55;;;23.18;;
22435;SDS011;11385;50.822;4.324;2022-12-10T11:50:57;61.73;;;23.75;;
22435;SDS011;11385;50.822;4.324;2022-12-10T11:53:38;58.65;;;22.22;;
22435;SDS011;11385;50.822;4.324;2022-12-10T11:56:21;54.77;;;22.40;;
22435;SDS011;11385;50.822;4.324;2022-12-10T11:59:10;57.15;;;23.90;;
22435;SDS011;11385;50.822;4.324;2022-12-10T12:01:47;51.05;;;21.75;;
22435;SDS011;11385;50.822;4.324;2022-12-10T12:04:27;50.85;;;21.42;;
22435;SDS011;11385;50.822;4.324;2022-12-10T12:10:10;56.60;;;22.30;;
22435;SDS011;11385;50.822;4.324;2022-12-10T12:12:56;52.25;;;21.55;;
22435;SDS011;11385;50.822;4.324;2022-12-10T12:15:29;51.18;;;20.12;;
22435;SDS011;11385;50.822;4.324;2022-12-10T12:18:03;53.55;;;20.72;;
22435;SDS011;11385;50.822;4.324;2022-12-10T12:20:36;52.83;;;21.60;;
22435;SDS011;11385;50.822;4.324;2022-12-10T12:25:39;50.25;;;19.82;;
22435;SDS011;11385;50.822;4.324;2022-12-10T12:30:40;48.25;;;18.55;;
22435;SDS011;11385;50.822;4.324;2022-12-10T12:33:11;47.10;;;20.92;;
22435;SDS011;11385;50.822;4.324;2022-12-10T12:35:44;60.40;;;27.13;;
22435;SDS011;11385;50.822;4.324;2022-12-10T12:38:26;59.05;;;30.82;;
22435;SDS011;11385;50.822;4.324;2022-12-10T12:40:57;46.05;;;18.37;;
22435;SDS011;11385;50.822;4.324;2022-12-10T12:43:28;48.70;;;20.20;;
22435;SDS011;11385;50.822;4.324;2022-12-10T12:45:59;41.40;;;17.50;;
22435;SDS011;11385;50.822;4.324;2022-12-10T12:49:01;46.13;;;20.10;;
22435;SDS011;11385;50.822;4.324;2022-12-10T12:51:17;42.30;;;19.73;;
22435;SDS011;11385;50.822;4.324;2022-12-10T12:53:47;49.08;;;20.65;;
22435;SDS011;11385;50.822;4.324;2022-12-10T12:56:21;49.88;;;20.25;;
22435;SDS011;11385;50.822;4.324;2022-12-10T12:59:06;42.00;;;17.62;;
22435;SDS011;11385;50.822;4.324;2022-12-10T13:01:43;45.60;;;19.05;;
22435;SDS011;11385;50.822;4.324;2022-12-10T13:04:15;47.30;;;19.92;;
22435;SDS011;11385;50.822;4.324;2022-12-10T13:06:42;50.38;;;20.75;;
22435;SDS011;11385;50.822;4.324;2022-12-10T13:09:17;45.45;;;19.27;;
22435;SDS011;11385;50.822;4.324;2022-12-10T13:15:01;46.18;;;19.52;;
22435;SDS011;11385;50.822;4.324;2022-12-10T13:17:33;45.70;;;19.05;;
22435;SDS011;11385;50.822;4.324;2022-12-10T13:22:55;46.77;;;19.05;;
22435;SDS011;11385;50.822;4.324;2022-12-10T13:28:21;47.93;;;19.85;;
22435;SDS011;11385;50.822;4.324;2022-12-10T13:33:28;45.23;;;19.20;;
22435;SDS011;11385;50.822;4.324;2022-12-10T13:35:59;43.33;;;18.77;;
22435;SDS011;11385;50.822;4.324;2022-12-10T13:38:26;53.25;;;21.45;;
22435;SDS011;11385;50.822;4.324;2022-12-10T13:40:57;51.50;;;22.58;;
22435;SDS011;11385;50.822;4.324;2022-12-10T13:43:37;53.08;;;21.45;;
22435;SDS011;11385;50.822;4.324;2022-12-10T13:48:50;47.53;;;22.00;;
22435;SDS011;11385;50.822;4.324;2022-12-10T13:51:24;50.43;;;23.25;;
22435;SDS011;11385;50.822;4.324;2022-12-10T13:54:21;52.25;;;23.00;;
22435;SDS011;11385;50.822;4.324;2022-12-10T13:59:40;56.25;;;22.55;;
22435;SDS011;11385;50.822;4.324;2022-12-10T14:02:28;45.65;;;20.80;;
22435;SDS011;11385;50.822;4.324;2022-12-10T14:05:17;46.88;;;22.50;;
22435;SDS011;11385;50.822;4.324;2022-12-10T14:07:51;64.62;;;31.37;;
22435;SDS011;11385;50.822;4.324;2022-12-10T14:10:23;54.60;;;22.53;;
22435;SDS011;11385;50.822;4.324;2022-12-10T14:12:53;68.50;;;30.55;;
22435;SDS011;11385;50.822;4.324;2022-12-10T14:15:21;51.20;;;23.50;;
22435;SDS011;11385;50.822;4.324;2022-12-10T14:17:51;64.47;;;26.27;;
22435;SDS011;11385;50.822;4.324;2022-12-10T14:20:23;56.40;;;22.32;;
22435;SDS011;11385;50.822;4.324;2022-12-10T14:22:52;53.60;;;22.62;;
22435;SDS011;11385;50.822;4.324;2022-12-10T14:25:40;47.58;;;20.27;;
22435;SDS011;11385;50.822;4.324;2022-12-10T14:30:41;50.55;;;20.60;;
22435;SDS011;11385;50.822;4.324;2022-12-10T14:33:09;47.45;;;19.57;;
22435;SDS011;11385;50.822;4.324;2022-12-10T14:35:40;45.17;;;21.45;;
22435;SDS011;11385;50.822;4.324;2022-12-10T14:38:12;43.08;;;19.52;;
22435;SDS011;11385;50.822;4.324;2022-12-10T14:40:39;44.85;;;18.12;;
22435;SDS011;11385;50.822;4.324;2022-12-10T14:43:10;40.33;;;17.10;;
22435;SDS011;11385;50.822;4.324;2022-12-10T14:48:16;39.78;;;16.75;;
22435;SDS011;11385;50.822;4.324;2022-12-10T14:50:44;45.43;;;17.15;;
22435;SDS011;11385;50.822;4.324;2022-12-10T14:53:14;44.18;;;18.00;;
22435;SDS011;11385;50.822;4.324;2022-12-10T14:55:43;44.05;;;18.90;;
22435;SDS011;11385;50.822;4.324;2022-12-10T14:58:14;43.25;;;18.30;;
22435;SDS011;11385;50.822;4.324;2022-12-10T15:00:46;40.58;;;17.67;;
22435;SDS011;11385;50.822;4.324;2022-12-10T15:03:19;45.65;;;18.55;;
22435;SDS011;11385;50.822;4.324;2022-12-10T15:05:53;42.98;;;17.95;;
22435;SDS011;11385;50.822;4.324;2022-12-10T15:08:15;44.15;;;18.15;;
22435;SDS011;11385;50.822;4.324;2022-12-10T15:10:46;35.60;;;14.73;;
22435;SDS011;11385;50.822;4.324;2022-12-10T15:13:21;37.25;;;16.57;;
22435;SDS011;11385;50.822;4.324;2022-12-10T15:15:51;39.35;;;16.70;;
22435;SDS011;11385;50.822;4.324;2022-12-10T15:18:19;38.85;;;16.97;;
22435;SDS011;11385;50.822;4.324;2022-12-10T15:21:10;39.23;;;17.95;;
22435;SDS011;11385;50.822;4.324;2022-12-10T15:23:43;37.33;;;16.32;;
22435;SDS011;11385;50.822;4.324;2022-12-10T15:28:48;39.80;;;17.10;;
22435;SDS011;11385;50.822;4.324;2022-12-10T15:33:59;44.48;;;18.45;;
22435;SDS011;11385;50.822;4.324;2022-12-10T15:36:34;30.37;;;13.70;;
22435;SDS011;11385;50.822;4.324;2022-12-10T15:39:21;37.83;;;17.87;;